Huvudsida
METAR-TAF:

METAR-TAF

Flygplatser :

Castres, Frankrike

latitud: 43-33-25N, longitud: 2-17-21E, höjd: 239 m

Aktuellt väderrapport

Denna rapport gjordes för 31 minuter sedan, klockan 14:00 UTC
Vind 14 kt från väst/nordväst
Temperatur 13°C
Fuktighet 62%
Tryck 1017 hPa
Sikt 10 km eller mer
Mulet på en höjd av 3700 ft

METAR: LFCK 291400Z AUTO 30014KT 9999 OVC037 13/06 Q1017

Tid: 16:31 (14:31 UTC)


TAF: saknas

Aktuella väderrapporter och prognoser från 4000 flygplatser (METAR- och TAF-rapporter).

De tillgängliga stationerna syns som gula och röda prickar på kartan.

För musen över prickarna för att se namnen på stationerna.

Klicka sedan för att få väderrapporter och prognoser.

För att ändra kartan: Klicka på de gröna knapparna med ett svart kors på för att zooma in; den gröna knappen med ett streck på för att zooma ut; eller på de gröna pilarna för angränsande kartor.


METAR-TAF: